Time;durP1;ratioP1;P1;durP2;ratioP2;P2;SDS_P1;SDS_P2;PMS_P1;PMS_P2;Temp;Humidity;BMP_temperature;BMP_pressure;BME280_temperature;BME280_humidity;BME280_pressure;Samples;Min_cycle;Max_cycle;Signal;HPM_P1;HPM_P2
2022/08/06 00:04:36;;;;;;;2.80;2.60;;;;;;;22.69;59.46;97067.72;10326873;28;20293;-26
2022/08/06 00:09:37;;;;;;;5.00;2.70;;;;;;;22.75;59.36;97090.59;10325571;28;20500;-26
2022/08/06 00:14:37;;;;;;;4.43;3.42;;;;;;;22.74;59.29;97093.19;10327270;28;20285;-27
2022/08/06 00:19:38;;;;;;;1.90;1.50;;;;;;;22.88;58.43;97081.09;10326168;28;20038;-27
2022/08/06 00:24:38;;;;;;;2.20;2.00;;;;;;;23.05;58.24;97094.53;10326162;28;20293;-27
2022/08/06 00:29:38;;;;;;;2.00;1.80;;;;;;;22.89;58.92;97091.31;10324994;28;20038;-27
2022/08/06 00:34:39;;;;;;;2.70;2.03;;;;;;;22.81;59.07;97097.38;10326505;28;20042;-27
2022/08/06 00:39:39;;;;;;;3.30;2.10;;;;;;;22.76;59.19;97094.88;10325116;28;20045;-27
2022/08/06 00:44:39;;;;;;;2.80;2.50;;;;;;;22.74;59.49;97088.91;10320075;28;20046;-26
2022/08/06 00:49:40;;;;;;;3.63;2.47;;;;;;;22.71;59.53;97086.41;10325558;28;20648;-27
2022/08/06 00:54:40;;;;;;;3.90;2.27;;;;;;;22.70;59.49;97084.72;10324831;28;20360;-27
2022/08/06 00:59:40;;;;;;;3.87;2.47;;;;;;;22.70;59.60;97084.72;10320400;28;20046;-27
2022/08/06 01:04:41;;;;;;;3.20;1.83;;;;;;;22.79;58.82;97094.84;10325760;28;20049;-26
2022/08/06 01:09:41;;;;;;;2.23;2.00;;;;;;;23.01;58.53;97096.28;10324295;28;20121;-27
2022/08/06 01:14:42;;;;;;;4.23;2.67;;;;;;;22.93;58.92;97092.97;10324436;28;20041;-26
2022/08/06 01:20:15;;;;;;;3.30;2.03;;;;;;;22.80;59.07;97091.41;10320674;28;20070;-27
2022/08/06 01:25:36;;;;;;;2.45;2.20;;;;;;;22.76;59.27;97073.59;10323934;28;20038;-27
2022/08/06 01:30:49;;;;;;;2.28;2.10;;;;;;;22.74;59.27;97083.81;10320283;28;20514;-27
2022/08/06 01:35:54;;;;;;;5.10;3.00;;;;;;;22.75;59.16;97085.50;10323236;28;20149;-27
2022/08/06 01:40:59;;;;;;;5.05;2.90;;;;;;;22.78;59.07;97076.97;10324190;28;20081;-26
2022/08/06 01:46:02;;;;;;;5.50;2.85;;;;;;;22.79;59.11;97094.84;10322479;28;20023;-27
2022/08/06 01:51:07;;;;;;;2.78;2.47;;;;;;;22.89;58.21;97091.31;10320701;28;20045;-26
2022/08/06 01:56:09;;;;;;;2.78;2.45;;;;;;;23.07;57.41;97096.19;10323344;28;20080;-27
2022/08/06 02:01:12;;;;;;;3.65;2.38;;;;;;;23.02;57.54;97113.31;10324194;28;20034;-26
2022/08/06 02:06:18;;;;;;;3.80;2.50;;;;;;;23.01;57.04;97116.72;10322589;28;20046;-27
2022/08/06 02:11:18;;;;;;;3.67;2.13;;;;;;;22.92;57.59;97121.91;10324019;28;20580;-27
2022/08/06 02:16:21;;;;;;;4.32;2.30;;;;;;;22.95;57.68;97134.66;10319731;28;20293;-27
2022/08/06 02:21:23;;;;;;;4.25;2.70;;;;;;;22.94;57.49;97140.63;10320166;28;20404;-27
2022/08/06 02:26:25;;;;;;;4.32;2.67;;;;;;;22.87;57.30;97133.91;10321562;28;20090;-27
2022/08/06 02:31:26;;;;;;;2.58;1.83;;;;;;;23.00;55.87;97132.88;10325818;28;20042;-27
2022/08/06 02:36:38;;;;;;;4.55;2.47;;;;;;;23.07;55.60;97139.63;10329037;28;20034;-26
2022/08/06 02:41:41;;;;;;;2.47;1.80;;;;;;;23.17;55.96;97136.13;10328841;28;20501;-27
2022/08/06 02:46:50;;;;;;;1.77;1.67;;;;;;;23.19;55.72;97139.53;10328467;28;20042;-27
2022/08/06 02:52:13;;;;;;;3.70;2.10;;;;;;;23.19;53.90;97136.13;10325205;28;20210;-27
2022/08/06 02:57:20;;;;;;;3.90;1.92;;;;;;;23.17;53.72;97137.84;10329975;28;20042;-27
2022/08/06 03:02:25;;;;;;;4.22;1.70;;;;;;;23.18;53.38;97130.19;10328973;28;20173;-27
2022/08/06 03:07:28;;;;;;;2.35;1.58;;;;;;;23.18;53.02;97131.88;10327497;28;20038;-27
2022/08/06 03:12:29;;;;;;;3.03;1.75;;;;;;;23.19;53.01;97131.88;10329716;28;20058;-27
2022/08/06 03:17:32;;;;;;;3.25;1.83;;;;;;;23.18;52.98;97142.94;10326066;28;20413;-26
2022/08/06 03:22:34;;;;;;;2.58;1.70;;;;;;;23.18;53.09;97142.94;10325817;28;20038;-26
2022/08/06 03:27:37;;;;;;;2.35;1.58;;;;;;;23.22;53.49;97142.03;10327663;28;20408;-26
2022/08/06 03:32:38;;;;;;;1.88;1.70;;;;;;;23.27;55.22;97147.94;10327137;28;20026;-27
2022/08/06 03:37:39;;;;;;;2.42;1.95;;;;;;;23.22;52.96;97131.00;10328115;28;20035;-26
2022/08/06 03:42:40;;;;;;;2.25;1.95;;;;;;;23.21;52.38;97144.59;10327166;28;20092;-26
2022/08/06 03:47:51;;;;;;;3.92;2.00;;;;;;;23.19;52.31;97154.84;10326785;28;20049;-25
2022/08/06 03:52:59;;;;;;;2.33;1.58;;;;;;;23.20;52.37;97163.34;10323499;28;20034;-27
2022/08/06 03:58:04;;;;;;;2.30;1.50;;;;;;;23.20;51.87;97164.22;10328386;28;20022;-26
2022/08/06 04:03:05;;;;;;;2.08;1.63;;;;;;;23.19;51.70;97148.88;10326574;28;20038;-27
2022/08/06 04:08:07;;;;;;;2.45;1.50;;;;;;;23.19;51.89;97161.66;10327057;28;20054;-26
2022/08/06 04:13:11;;;;;;;2.20;1.70;;;;;;;23.20;52.28;97166.75;10327259;28;20039;-26
2022/08/06 04:18:16;;;;;;;2.30;2.10;;;;;;;23.27;52.50;97176.06;10324550;28;20050;-27
2022/08/06 04:23:17;;;;;;;3.03;1.73;;;;;;;23.22;51.55;97175.25;10324709;28;20256;-27
2022/08/06 04:28:20;;;;;;;1.60;1.42;;;;;;;23.20;51.52;97184.66;10324392;28;20045;-26
2022/08/06 04:33:22;;;;;;;2.38;1.40;;;;;;;23.06;51.80;97166.03;10325662;28;20050;-27
2022/08/06 04:38:23;;;;;;;1.83;1.50;;;;;;;23.17;51.45;97178.72;10325476;28;20081;-27
2022/08/06 04:43:25;;;;;;;3.88;1.42;;;;;;;23.19;51.14;97193.19;10325819;28;20394;-26
2022/08/06 04:48:26;;;;;;;3.95;1.50;;;;;;;23.19;50.64;97192.31;10321638;28;20038;-27
2022/08/06 04:53:27;;;;;;;2.35;1.55;;;;;;;23.19;50.56;97198.28;10324887;28;20042;-27
2022/08/06 04:58:27;;;;;;;2.50;1.53;;;;;;;23.21;50.27;97198.25;10325944;28;20037;-27
2022/08/06 05:03:29;;;;;;;2.67;1.27;;;;;;;23.23;50.76;97205.03;10324503;28;20045;-26
2022/08/06 05:08:33;;;;;;;3.20;1.40;;;;;;;23.22;50.45;97197.41;10324684;28;20133;-26
2022/08/06 05:13:37;;;;;;;3.40;1.55;;;;;;;23.19;50.49;97208.50;10325877;28;20113;-26
2022/08/06 05:19:01;;;;;;;1.85;1.40;;;;;;;23.18;50.49;97214.47;10319273;28;20030;-26
2022/08/06 05:24:02;;;;;;;3.00;1.40;;;;;;;23.16;51.01;97216.19;10321593;28;20093;-26
2022/08/06 05:29:03;;;;;;;3.17;1.80;;;;;;;23.16;51.59;97228.97;10321581;28;20113;-26
2022/08/06 05:34:04;;;;;;;2.13;2.00;;;;;;;23.16;50.72;97228.13;10324993;28;20105;-27
2022/08/06 05:39:06;;;;;;;1.65;1.10;;;;;;;23.16;50.27;97228.13;10323571;28;20105;-26
2022/08/06 05:44:06;;;;;;;2.47;1.10;;;;;;;23.14;50.33;97228.13;10322260;28;20037;-26
2022/08/06 05:49:10;;;;;;;2.35;1.27;;;;;;;23.18;50.91;97237.47;10321396;28;20038;-26
2022/08/06 05:54:20;;;;;;;2.15;1.30;;;;;;;23.21;54.50;97252.75;10321128;28;20038;-26
2022/08/06 05:59:26;;;;;;;1.77;1.55;;;;;;;23.02;54.00;97256.34;10323241;28;20046;-27
2022/08/06 06:04:28;;;;;;;1.60;1.33;;;;;;;22.85;54.71;97250.53;10322662;28;20092;-26
2022/08/06 06:09:28;;;;;;;3.15;1.30;;;;;;;22.86;55.47;97259.88;10332320;28;20089;-27
2022/08/06 06:14:38;;;;;;;2.00;1.20;;;;;;;22.85;55.97;97268.41;10330533;28;20031;-26
2022/08/06 06:19:49;;;;;;;1.58;1.17;;;;;;;22.82;56.32;97267.59;10327012;28;20030;-27
2022/08/06 06:25:02;;;;;;;3.67;1.40;;;;;;;23.31;49.89;97271.41;10324858;28;20034;-27
2022/08/06 06:30:06;;;;;;;2.17;1.00;;;;;;;22.41;57.96;97274.69;10322839;28;20670;-27
2022/08/06 06:35:44;;;;;;;4.38;1.35;;;;;;;22.73;51.98;97283.81;10327861;28;20037;-26
2022/08/06 06:41:00;;;;;;;2.05;1.08;;;;;;;22.72;53.68;97287.22;10324751;28;20037;-26
2022/08/06 06:46:08;;;;;;;1.85;1.35;;;;;;;22.36;55.56;97292.56;10324336;28;20085;-27
2022/08/06 06:51:15;;;;;;;2.78;1.00;;;;;;;22.29;55.82;97285.78;10325573;28;20035;-26
2022/08/06 06:56:18;;;;;;;;;;;;;;;22.28;53.65;97288.34;10327741;28;20030;-26
2022/08/06 07:01:20;;;;;;;1.75;1.20;;;;;;;22.13;54.51;97289.28;10329375;28;19909;-26
2022/08/06 07:06:22;;;;;;;2.42;1.60;;;;;;;22.28;53.86;97284.09;10327048;28;20148;-26
2022/08/06 07:11:24;;;;;;;1.98;1.35;;;;;;;22.23;54.35;97287.53;10324838;28;20066;-27
2022/08/06 07:16:26;;;;;;;1.08;0.98;;;;;;;22.05;54.98;97280.81;10324972;28;20402;-26
2022/08/06 07:21:27;;;;;;;1.90;1.10;;;;;;;22.20;55.29;97274.78;10326439;28;20035;-26
2022/08/06 07:26:29;;;;;;;2.53;1.58;;;;;;;22.60;53.62;97279.66;10329047;28;20300;-25
2022/08/06 07:31:30;;;;;;;2.65;1.10;;;;;;;22.39;54.02;97276.38;10323533;28;20077;-26
2022/08/06 07:36:33;;;;;;;1.30;1.10;;;;;;;22.17;55.52;97290.97;10327190;28;20030;-26
2022/08/06 07:41:34;;;;;;;3.60;1.50;;;;;;;21.99;56.03;97283.41;10320595;28;20034;-26
2022/08/06 07:46:41;;;;;;;2.47;1.25;;;;;;;22.01;54.65;97279.16;10284053;28;20045;-26
2022/08/06 07:51:44;;;;;;;3.28;1.55;;;;;;;22.04;55.74;97281.69;10318018;28;20038;-27
2022/08/06 07:56:46;;;;;;;2.80;1.38;;;;;;;21.91;55.12;97290.22;10327136;28;20035;-27
2022/08/06 08:01:47;;;;;;;3.33;1.30;;;;;;;21.92;55.07;97298.75;10326347;28;20037;-26
2022/08/06 08:06:47;;;;;;;1.92;1.38;;;;;;;21.89;55.23;97273.28;10323596;28;20513;-27
2022/08/06 08:11:48;;;;;;;2.50;1.47;;;;;;;22.19;52.48;97279.06;10321476;28;20039;-26
2022/08/06 08:16:49;;;;;;;2.15;1.20;;;;;;;22.19;53.43;97279.06;10324611;28;20084;-27
2022/08/06 08:21:51;;;;;;;4.78;1.13;;;;;;;22.08;53.94;97275.69;10319988;28;20318;-27
2022/08/06 08:26:53;;;;;;;2.30;1.20;;;;;;;22.15;54.07;97279.09;10324344;28;20026;-26
2022/08/06 08:31:55;;;;;;;2.92;1.25;;;;;;;21.97;54.16;97292.75;10325220;28;20038;-26
2022/08/06 08:36:55;;;;;;;4.75;1.25;;;;;;;22.15;52.28;97274.81;10324129;28;20040;-26
2022/08/06 08:42:18;;;;;;;4.60;1.33;;;;;;;22.23;53.25;97280.72;10325926;28;20022;-26
2022/08/06 08:47:20;;;;;;;4.30;1.40;;;;;;;21.87;53.96;97282.59;10320835;28;20523;-26
2022/08/06 08:52:30;;;;;;;4.63;1.15;;;;;;;22.34;52.91;97289.19;10322170;28;20361;-26
2022/08/06 08:57:32;;;;;;;2.08;1.25;;;;;;;21.91;54.58;97281.75;10325727;28;20038;-26
2022/08/06 09:02:33;;;;;;;2.90;1.10;;;;;;;22.36;53.34;97290.00;10323112;28;20468;-26
2022/08/06 09:07:34;;;;;;;1.77;0.88;;;;;;;22.15;53.66;97287.56;10318116;28;20061;-27
2022/08/06 09:12:35;;;;;;;5.63;1.40;;;;;;;22.13;53.85;97289.28;10325911;28;20030;-26
2022/08/06 09:17:36;;;;;;;1.20;0.90;;;;;;;21.93;53.56;97293.66;10323035;28;20038;-26
2022/08/06 09:22:36;;;;;;;6.68;1.20;;;;;;;21.85;54.53;97302.16;10321069;28;20041;-26
2022/08/06 09:27:37;;;;;;;7.03;1.57;;;;;;;21.82;54.08;97305.56;10322914;28;20511;-26
2022/08/06 09:32:40;;;;;;;3.67;1.10;;;;;;;22.07;53.98;97309.72;10320870;28;20286;-26
2022/08/06 09:37:41;;;;;;;2.33;1.25;;;;;;;22.31;50.23;97319.78;10322476;28;20045;-25
2022/08/06 09:42:48;;;;;;;2.90;1.20;;;;;;;22.28;53.53;97313.84;10323358;28;20694;-26
2022/08/06 09:48:00;;;;;;;1.35;0.93;;;;;;;22.05;54.96;97323.34;10320311;28;20336;-26
2022/08/06 09:53:01;;;;;;;4.90;1.58;;;;;;;22.43;51.20;97324.00;10316289;28;20022;-27
2022/08/06 09:58:03;;;;;;;1.58;1.20;;;;;;;22.34;54.07;97324.91;10323951;28;20030;-26
2022/08/06 10:03:09;;;;;;;2.45;1.25;;;;;;;22.07;54.82;97326.72;10314983;28;20117;-26
2022/08/06 10:08:17;;;;;;;1.38;1.13;;;;;;;21.94;54.78;97328.50;10319164;28;20775;-26
2022/08/06 10:13:26;;;;;;;1.25;0.90;;;;;;;21.99;55.20;97336.94;10317896;28;20042;-26
2022/08/06 10:18:38;;;;;;;2.15;1.25;;;;;;;21.98;55.44;97334.44;10313377;28;20045;-26
2022/08/06 10:23:41;;;;;;;1.20;0.95;;;;;;;21.97;55.86;97348.88;10315730;28;20390;-26
2022/08/06 10:28:44;;;;;;;1.80;1.27;;;;;;;21.92;55.70;97353.16;10320040;28;20037;-26
2022/08/06 10:34:07;;;;;;;2.75;1.33;;;;;;;21.93;56.01;97361.63;10317262;28;20110;-26
2022/08/06 10:39:08;;;;;;;1.88;1.25;;;;;;;22.05;55.15;97352.22;10319254;28;20516;-27
2022/08/06 10:44:10;;;;;;;3.08;1.67;;;;;;;22.41;53.74;97364.84;10322013;28;20042;-26
2022/08/06 10:49:10;;;;;;;1.05;0.95;;;;;;;22.68;50.84;97351.94;10323393;28;20045;-26
2022/08/06 10:54:11;;;;;;;4.20;1.70;;;;;;;22.92;49.79;97354.28;10324098;28;20035;-26
2022/08/06 10:59:15;;;;;;;4.43;1.35;;;;;;;22.84;49.95;97355.22;10330551;28;20057;-26
2022/08/06 11:04:31;;;;;;;1.60;0.95;;;;;;;22.20;54.62;97346.22;10327509;28;20058;-26
2022/08/06 11:09:37;;;;;;;1.63;1.00;;;;;;;22.19;54.82;97335.19;10327635;28;20045;-27
2022/08/06 11:14:39;;;;;;;;;;;;;;;22.49;53.57;97337.56;10327420;28;20599;-26
2022/08/06 11:19:42;;;;;;;2.08;1.15;;;;;;;22.61;52.00;97334.09;10329706;28;19929;-26
2022/08/06 11:24:51;;;;;;;3.33;2.20;;;;;;;22.70;51.57;97328.94;10325844;28;20303;-26
2022/08/06 11:30:09;;;;;;;2.22;1.13;;;;;;;22.75;51.36;97332.31;10325804;28;20045;-26
2022/08/06 11:35:34;;;;;;;1.15;0.82;;;;;;;22.45;54.42;97322.28;10325594;28;20070;-26
2022/08/06 11:40:54;;;;;;;4.85;1.20;;;;;;;22.70;53.41;97323.84;10326095;28;20409;-26
2022/08/06 11:46:19;;;;;;;2.38;1.30;;;;;;;22.70;51.93;97309.38;10317217;28;20030;-26
2022/08/06 11:51:50;;;;;;;5.97;1.30;;;;;;;22.76;51.23;97314.44;10316705;28;20112;-25
2022/08/06 11:57:06;;;;;;;2.67;1.02;;;;;;;22.53;53.25;97308.66;10325658;28;20042;-26
2022/08/06 12:02:09;;;;;;;5.07;1.37;;;;;;;22.67;52.23;97294.09;10326045;28;20034;-26
2022/08/06 12:07:22;;;;;;;3.55;1.30;;;;;;;22.89;50.79;97295.59;10325536;28;20423;-27
2022/08/06 12:12:29;;;;;;;1.50;1.05;;;;;;;22.86;51.57;97300.75;10326721;28;20034;-26
2022/08/06 12:17:29;;;;;;;;;;;;;;;22.96;50.88;97287.03;10322638;28;20057;-27
2022/08/06 12:22:32;;;;;;;1.63;1.08;;;;;;;22.37;54.04;97289.16;10323603;28;19964;-27
2022/08/06 12:27:35;;;;;;;1.75;1.10;;;;;;;22.17;55.25;97283.31;10326849;28;20038;-26
2022/08/06 12:32:36;;;;;;;2.83;1.00;;;;;;;22.15;54.83;97277.38;10308056;28;20523;-27
2022/08/06 12:37:45;;;;;;;2.08;1.20;;;;;;;22.01;55.67;97276.63;10325333;28;20034;-26
2022/08/06 12:42:46;;;;;;;2.90;1.15;;;;;;;22.22;54.67;97270.56;10326199;28;20519;-27
2022/08/06 12:48:06;;;;;;;1.07;0.97;;;;;;;22.03;54.97;97274.91;10320622;28;20045;-27
2022/08/06 12:53:12;;;;;;;4.25;1.30;;;;;;;21.99;55.36;97268.09;10321007;28;20376;-26
2022/08/06 12:58:22;;;;;;;6.35;1.42;;;;;;;22.34;53.37;97271.31;10325586;28;20038;-27
2022/08/06 13:03:24;;;;;;;4.05;1.55;;;;;;;22.59;52.37;97265.22;10321484;28;20038;-26
2022/08/06 13:08:25;;;;;;;3.60;1.08;;;;;;;22.37;54.75;97252.56;10324401;28;20116;-26
2022/08/06 13:13:51;;;;;;;5.43;1.17;;;;;;;22.07;54.78;97238.31;10314078;28;20049;-26
2022/08/06 13:19:10;;;;;;;2.38;1.23;;;;;;;22.08;55.15;97262.94;10316330;28;20078;-27
2022/08/06 13:24:12;;;;;;;1.35;0.93;;;;;;;22.03;54.60;97262.16;10319663;28;20042;-26
2022/08/06 13:29:17;;;;;;;2.50;1.15;;;;;;;22.06;55.10;97256.19;10324172;28;20641;-25
2022/08/06 13:34:17;;;;;;;2.30;1.00;;;;;;;21.95;56.04;97248.59;10314602;28;20492;-26
2022/08/06 13:39:30;;;;;;;2.07;1.37;;;;;;;22.00;54.91;97241.78;10324223;28;20042;-26
2022/08/06 13:44:37;;;;;;;3.42;1.48;;;;;;;22.04;54.58;97242.56;10317113;28;20038;-26
2022/08/06 13:49:38;;;;;;;5.68;1.60;;;;;;;22.40;52.77;97238.09;10311154;28;20556;-27
2022/08/06 13:54:38;;;;;;;3.50;1.73;;;;;;;22.29;53.41;97233.91;10306759;28;20109;-26
2022/08/06 13:59:38;;;;;;;3.77;1.43;;;;;;;22.21;54.29;97233.13;10319016;28;20026;-26
2022/08/06 14:04:39;;;;;;;6.27;1.70;;;;;;;22.34;53.76;97217.75;10321756;28;20324;-26
2022/08/06 14:09:40;;;;;;;2.13;1.08;;;;;;;22.14;53.24;97214.47;10318300;28;20038;-26
2022/08/06 14:14:40;;;;;;;5.60;1.75;;;;;;;22.19;54.62;97216.97;10318385;28;20031;-25
2022/08/06 14:19:41;;;;;;;7.85;2.00;;;;;;;22.44;52.79;97208.31;10323850;28;20100;-26
2022/08/06 14:24:42;;;;;;;6.10;2.10;;;;;;;22.75;51.92;97204.66;10320454;28;20031;-26
2022/08/06 14:29:43;;;;;;;5.55;1.50;;;;;;;22.63;53.19;97213.28;10330457;28;20061;-26
2022/08/06 14:34:46;;;;;;;5.15;2.00;;;;;;;22.77;51.27;97202.94;10331036;28;20101;-27
2022/08/06 14:39:46;;;;;;;3.30;1.65;;;;;;;23.01;51.21;97198.47;10330605;28;20045;-27
2022/08/06 14:44:55;;;;;;;3.67;1.77;;;;;;;23.09;50.61;97189.00;10329638;28;20047;-27
2022/08/06 14:49:55;;;;;;;2.75;1.33;;;;;;;22.76;52.39;97186.78;10326851;28;20034;-27
2022/08/06 14:54:56;;;;;;;2.87;1.20;;;;;;;22.41;53.94;97188.78;10322372;28;20395;-26
2022/08/06 14:59:57;;;;;;;6.82;2.00;;;;;;;22.73;52.22;97176.59;10324268;28;20054;-26
2022/08/06 15:04:58;;;;;;;4.40;1.30;;;;;;;22.64;53.69;97186.88;10326473;28;20042;-26
2022/08/06 15:09:58;;;;;;;4.60;1.60;;;;;;;22.29;53.93;97185.44;10325310;28;20034;-26
2022/08/06 15:14:58;;;;;;;3.23;1.40;;;;;;;22.28;54.24;97176.97;10325307;28;20089;-27
2022/08/06 15:19:59;;;;;;;5.13;2.13;;;;;;;22.73;53.29;97176.59;10325543;28;20045;-26
2022/08/06 15:24:59;;;;;;;8.37;2.60;;;;;;;22.89;52.68;97177.31;10313914;28;20400;-26
2022/08/06 15:29:59;;;;;;;19.03;2.87;;;;;;;22.87;53.03;97168.78;10323403;28;20023;-27
2022/08/06 15:35:00;;;;;;;6.47;1.67;;;;;;;22.61;54.17;97171.59;10314478;28;20050;-27
2022/08/06 15:40:00;;;;;;;6.80;1.73;;;;;;;22.57;55.10;97164.81;10323326;28;20388;-27
2022/08/06 15:45:00;;;;;;;5.73;1.57;;;;;;;22.44;55.31;97170.06;10323082;28;20026;-27
2022/08/06 15:50:01;;;;;;;13.23;2.87;;;;;;;22.55;54.70;97161.44;10322850;28;20121;-27
2022/08/06 15:55:03;;;;;;;4.10;1.67;;;;;;;22.31;55.75;97171.00;10321162;28;20030;-26
2022/08/06 16:00:05;;;;;;;2.58;1.60;;;;;;;22.27;54.82;97159.09;10324621;28;20294;-25
2022/08/06 16:05:06;;;;;;;4.03;1.98;;;;;;;22.70;53.63;97156.19;10326179;28;20041;-27
2022/08/06 16:10:07;;;;;;;4.28;2.08;;;;;;;22.75;54.18;97158.72;10324687;28;20036;-26
2022/08/06 16:15:08;;;;;;;4.03;1.73;;;;;;;22.79;52.92;97155.25;10326242;28;21310;-27
2022/08/06 16:20:08;;;;;;;1.90;1.50;;;;;;;22.67;54.20;97161.34;10326492;28;20033;-26
2022/08/06 16:25:09;;;;;;;2.65;1.70;;;;;;;22.71;52.89;97154.47;10325081;28;20097;-27
2022/08/06 16:30:09;;;;;;;3.47;2.05;;;;;;;22.76;53.25;97145.94;10326476;28;20034;-26
2022/08/06 16:35:10;;;;;;;1.98;1.67;;;;;;;22.51;54.95;97141.06;10326726;28;20054;-26
2022/08/06 16:40:10;;;;;;;2.38;1.55;;;;;;;22.28;55.22;97142.94;10325852;28;20042;-25
2022/08/06 16:45:11;;;;;;;2.20;1.30;;;;;;;22.30;55.20;97128.47;10324016;28;20389;-25
2022/08/06 16:50:12;;;;;;;1.77;1.60;;;;;;;22.59;53.57;97129.94;10320245;28;20092;-26
2022/08/06 16:55:13;;;;;;;5.60;2.83;;;;;;;22.94;51.68;97135.53;10320561;28;20030;-25
2022/08/06 17:00:17;;;;;;;4.30;2.38;;;;;;;22.74;53.25;97127.22;10325626;28;20038;-27
2022/08/06 17:05:18;;;;;;;6.30;2.70;;;;;;;23.04;51.66;97131.16;10323708;28;20033;-26
2022/08/06 17:10:18;;;;;;;4.03;2.93;;;;;;;23.00;51.51;97130.34;10316356;28;20038;-27
2022/08/06 17:15:20;;;;;;;5.37;3.43;;;;;;;22.75;52.87;97123.78;10318298;28;20308;-26
2022/08/06 17:20:21;;;;;;;5.38;2.70;;;;;;;23.00;51.97;97137.16;10321598;28;20329;-27
2022/08/06 17:25:21;;;;;;;2.83;2.20;;;;;;;23.09;50.77;97130.25;10315835;28;20069;-26
2022/08/06 17:30:23;;;;;;;6.05;2.20;;;;;;;23.15;50.20;97130.19;10325126;28;20113;-28
2022/08/06 17:35:25;;;;;;;3.42;2.10;;;;;;;23.19;51.72;97131.00;10317630;28;20701;-26
2022/08/06 17:40:26;;;;;;;1.85;1.63;;;;;;;23.10;52.15;97129.38;10322803;28;20042;-26
2022/08/06 17:45:27;;;;;;;5.30;2.70;;;;;;;23.19;51.22;97131.88;10316922;28;20034;-27
2022/08/06 17:50:27;;;;;;;8.68;2.58;;;;;;;22.98;52.46;97142.28;10318703;28;20680;-27
2022/08/06 17:55:28;;;;;;;5.67;1.73;;;;;;;22.60;54.77;97139.28;10316320;28;20496;-26
2022/08/06 18:00:28;;;;;;;2.38;2.00;;;;;;;22.46;54.37;97147.91;10315924;28;20034;-27
2022/08/06 18:05:29;;;;;;;2.07;1.87;;;;;;;22.39;55.34;97148.81;10327372;28;20042;-27
2022/08/06 18:10:29;;;;;;;5.47;1.60;;;;;;;22.19;55.15;97155.75;10326624;28;20040;-26
2022/08/06 18:15:30;;;;;;;2.55;1.40;;;;;;;22.27;55.20;97165.06;10326299;28;20026;-27
2022/08/06 18:20:31;;;;;;;4.47;1.80;;;;;;;22.43;54.02;97171.78;10327688;28;20065;-27
2022/08/06 18:25:32;;;;;;;2.28;1.58;;;;;;;22.60;53.72;97174.16;10321462;28;20145;-27
2022/08/06 18:30:33;;;;;;;4.18;1.60;;;;;;;22.67;52.81;97179.22;10306727;28;20088;-26
2022/08/06 18:35:33;;;;;;;4.35;1.73;;;;;;;22.78;52.29;97179.97;10316956;28;20034;-27
2022/08/06 18:40:34;;;;;;;1.90;1.60;;;;;;;22.37;55.51;97181.13;10319377;28;20046;-27
2022/08/06 18:45:35;;;;;;;1.97;1.50;;;;;;;22.51;54.79;97179.34;10318693;28;20046;-26
2022/08/06 18:50:36;;;;;;;1.75;1.65;;;;;;;22.34;55.20;97179.47;10323641;28;20133;-26
2022/08/06 18:55:36;;;;;;;2.15;1.63;;;;;;;22.16;55.76;97182.13;10320313;28;20045;-26
2022/08/06 19:00:39;;;;;;;2.40;1.57;;;;;;;22.11;55.28;97173.69;10322817;28;21759;-26
2022/08/06 19:05:40;;;;;;;2.30;1.63;;;;;;;22.07;55.13;97184.75;10322902;28;20847;-26
2022/08/06 19:10:41;;;;;;;1.98;1.75;;;;;;;22.05;54.81;97181.38;10322733;28;20042;-27
2022/08/06 19:15:41;;;;;;;3.88;1.70;;;;;;;22.40;54.27;97174.28;10321422;28;20473;-27
2022/08/06 19:20:42;;;;;;;1.55;1.45;;;;;;;22.07;55.11;97189.84;10286806;28;1043023;-26
2022/08/06 19:25:43;;;;;;;2.30;1.40;;;;;;;21.98;54.71;97187.38;10322781;28;20065;-27
2022/08/06 19:30:43;;;;;;;2.50;1.75;;;;;;;21.92;54.95;97181.47;10317468;28;20043;-26
2022/08/06 19:35:44;;;;;;;4.55;2.03;;;;;;;21.87;54.83;97181.50;10322493;28;20189;-26
2022/08/06 19:40:45;;;;;;;2.72;1.73;;;;;;;21.89;54.79;97179.78;10323323;28;20045;-27
2022/08/06 19:45:48;;;;;;;2.08;1.85;;;;;;;21.87;54.72;97176.41;10320742;28;20042;-26
2022/08/06 19:50:48;;;;;;;3.47;2.00;;;;;;;21.92;54.66;97184.00;10323339;28;20710;-26
2022/08/06 19:55:48;;;;;;;2.57;1.80;;;;;;;21.93;54.65;97171.25;10325044;28;20041;-26
2022/08/06 20:00:51;;;;;;;2.17;1.87;;;;;;;21.90;54.77;97176.38;10322175;28;20297;-26
2022/08/06 20:05:51;;;;;;;3.58;1.65;;;;;;;21.89;55.06;97181.50;10320522;28;20293;-27
2022/08/06 20:10:52;;;;;;;2.65;1.90;;;;;;;21.87;54.93;97186.59;10319274;28;20045;-27
2022/08/06 20:15:53;;;;;;;3.80;2.08;;;;;;;21.84;54.96;97189.16;10321728;28;20046;-26
2022/08/06 20:20:53;;;;;;;2.25;2.00;;;;;;;21.81;55.15;97188.34;10319334;28;20038;-26
2022/08/06 20:25:54;;;;;;;2.20;1.92;;;;;;;21.79;55.54;97193.44;10317912;28;20424;-27
2022/08/06 20:30:55;;;;;;;6.05;2.67;;;;;;;21.79;55.45;97195.13;10316467;28;20038;-26
2022/08/06 20:35:56;;;;;;;6.22;2.40;;;;;;;21.80;55.23;97197.69;10321287;28;20883;-26
2022/08/06 20:40:57;;;;;;;2.53;1.90;;;;;;;21.80;55.01;97190.03;10318237;28;20030;-26
2022/08/06 20:45:58;;;;;;;2.30;2.10;;;;;;;21.79;55.21;97180.69;10318265;28;20060;-26
2022/08/06 20:50:59;;;;;;;3.60;2.13;;;;;;;21.75;55.39;97173.94;10315305;28;20038;-26
2022/08/06 20:55:59;;;;;;;2.25;2.05;;;;;;;21.29;55.81;97171.56;10320196;28;20034;-25
2022/08/06 21:01:00;;;;;;;2.72;2.15;;;;;;;21.14;56.21;97177.56;10320126;28;20030;-26
2022/08/06 21:06:00;;;;;;;2.72;2.20;;;;;;;21.12;55.79;97168.22;10317234;28;20030;-26
2022/08/06 21:11:02;;;;;;;2.60;2.00;;;;;;;20.99;56.30;97171.66;10325763;28;20037;-27
2022/08/06 21:16:02;;;;;;;2.47;2.10;;;;;;;20.97;56.47;97174.19;10322783;28;20069;-26
2022/08/06 21:21:03;;;;;;;4.85;2.30;;;;;;;20.96;56.42;97176.78;10321645;28;20070;-26
2022/08/06 21:26:04;;;;;;;3.55;2.38;;;;;;;20.99;56.60;97180.13;10324364;28;20046;-25
2022/08/06 21:31:04;;;;;;;4.13;2.30;;;;;;;20.94;56.81;97184.41;10323828;28;20489;-26
2022/08/06 21:36:05;;;;;;;4.40;2.33;;;;;;;20.89;56.99;97175.91;10322271;28;20030;-26
2022/08/06 21:46:28;;;;;;;3.80;2.25;;;;;;;20.84;57.05;97180.16;10322253;28;20044;-26
2022/08/06 21:51:29;;;;;;;3.13;2.80;;;;;;;20.84;57.28;97182.72;10316991;28;20472;-26
2022/08/06 21:56:29;;;;;;;3.28;2.50;;;;;;;20.82;57.23;97179.28;10324565;28;20030;-26
2022/08/06 22:01:30;;;;;;;4.10;2.57;;;;;;;20.78;57.28;97175.06;10324067;28;20038;-26
2022/08/06 22:06:30;;;;;;;3.70;2.90;;;;;;;20.79;57.61;97169.13;10317659;28;20294;-27
2022/08/06 22:11:30;;;;;;;3.20;2.73;;;;;;;20.75;57.54;97152.19;10320403;28;20033;-26
2022/08/06 22:16:31;;;;;;;4.70;3.00;;;;;;;20.73;57.46;97143.69;10321153;28;20076;-28
2022/08/06 22:21:31;;;;;;;4.10;2.77;;;;;;;20.70;57.62;97145.38;10321155;28;20037;-27
2022/08/06 22:26:31;;;;;;;3.10;2.67;;;;;;;20.59;57.94;97145.44;10323319;28;20058;-26
2022/08/06 22:31:32;;;;;;;3.13;2.70;;;;;;;20.58;57.91;97125.94;10316726;28;20045;-26
2022/08/06 22:36:32;;;;;;;3.23;2.93;;;;;;;20.60;58.04;97131.00;10322825;28;20042;-26
2022/08/06 22:41:32;;;;;;;4.13;2.50;;;;;;;20.63;57.70;97111.47;10323793;28;20068;-27
2022/08/06 22:46:34;;;;;;;3.42;2.97;;;;;;;20.54;58.05;97115.75;10322550;28;20064;-26
2022/08/06 22:51:34;;;;;;;7.85;3.40;;;;;;;20.54;57.53;97114.03;10321041;28;20117;-26
2022/08/06 22:56:35;;;;;;;3.53;2.70;;;;;;;20.59;57.89;97104.72;10329869;28;20076;-27
2022/08/06 23:01:35;;;;;;;3.45;2.53;;;;;;;20.55;57.88;97097.09;10328330;28;20041;-27
2022/08/06 23:06:36;;;;;;;3.00;2.67;;;;;;;20.43;58.36;97097.09;10326617;28;20034;-27
2022/08/06 23:11:36;;;;;;;4.75;2.83;;;;;;;20.48;57.50;97098.78;10324280;28;20186;-26
2022/08/06 23:16:37;;;;;;;3.63;2.43;;;;;;;20.47;57.97;97099.63;10327893;28;20030;-26
2022/08/06 23:21:38;;;;;;;3.10;2.35;;;;;;;20.45;57.82;97100.53;10327649;28;20034;-27
2022/08/06 23:26:38;;;;;;;2.57;2.37;;;;;;;20.28;57.89;97083.56;10329053;28;20034;-26
2022/08/06 23:31:39;;;;;;;3.63;2.37;;;;;;;20.37;58.00;97101.38;10328081;28;20436;-26
2022/08/06 23:36:40;;;;;;;2.83;2.63;;;;;;;20.24;58.21;97089.50;10327744;28;20038;-26
2022/08/06 23:41:42;;;;;;;4.05;2.40;;;;;;;20.30;58.25;97097.13;10329240;28;20493;-26